createdAt,value
2023-02-11T00:02:01.090Z,103035.13
2023-02-11T00:04:28.329Z,103040.00
2023-02-11T00:06:55.671Z,102975.16
2023-02-11T00:09:23.152Z,103033.19
2023-02-11T00:11:50.480Z,103005.03
2023-02-11T00:14:18.922Z,103180.59
2023-02-11T00:16:46.311Z,103004.41
2023-02-11T00:19:13.833Z,103033.09
2023-02-11T00:21:42.926Z,102991.38
2023-02-11T00:24:30.706Z,103067.75
2023-02-11T00:27:32.253Z,102983.56
2023-02-11T00:30:35.684Z,103011.78
2023-02-11T00:33:17.062Z,103238.19
2023-02-11T00:35:47.263Z,103268.00
2023-02-11T00:38:15.503Z,103016.38
2023-02-11T00:40:45.625Z,103031.09
2023-02-11T00:43:17.373Z,103034.34
2023-02-11T00:45:54.910Z,103251.97
2023-02-11T00:48:47.679Z,103138.06
2023-02-11T00:51:33.221Z,103008.44
2023-02-11T00:54:05.037Z,102987.44
2023-02-11T00:56:58.189Z,103036.38
2023-02-11T00:59:57.524Z,102984.47
2023-02-11T01:02:43.001Z,103003.94
2023-02-11T01:05:14.695Z,103227.19
2023-02-11T01:07:48.621Z,103020.19
2023-02-11T01:10:37.624Z,103251.13
2023-02-11T01:13:23.014Z,102991.19
2023-02-11T01:16:16.564Z,103004.56
2023-02-11T01:19:03.084Z,103008.66
2023-02-11T01:21:32.666Z,102981.41
2023-02-11T01:24:01.739Z,102955.41
2023-02-11T01:26:31.282Z,102985.88
2023-02-11T01:29:22.995Z,103255.56
2023-02-11T01:32:24.830Z,103053.81
2023-02-11T01:35:15.595Z,103002.34
2023-02-11T01:37:45.255Z,103236.06
2023-02-11T01:40:20.652Z,103154.00
2023-02-11T01:42:53.429Z,103082.41
2023-02-11T01:46:01.082Z,103234.25
2023-02-11T01:49:17.451Z,102945.13
2023-02-11T01:56:29.990Z,103111.72
2023-02-11T01:59:28.016Z,102973.69
2023-02-11T02:02:10.737Z,102938.00
2023-02-11T02:04:57.542Z,103106.44
2023-02-11T02:08:02.538Z,102982.66
2023-02-11T02:10:48.110Z,102970.09
2023-02-11T02:13:24.298Z,102968.28
2023-02-11T02:20:01.937Z,103212.97
2023-02-11T02:23:28.988Z,103160.88
2023-02-11T02:26:28.395Z,103224.75
2023-02-11T02:28:58.372Z,103222.91
2023-02-11T02:31:47.285Z,103220.16
2023-02-11T02:34:30.440Z,103258.66
2023-02-11T02:37:21.991Z,103211.03
2023-02-11T02:39:50.832Z,103215.66
2023-02-11T02:42:19.979Z,102785.47
2023-02-11T02:44:51.530Z,103135.47
2023-02-11T02:47:18.943Z,102985.59
2023-02-11T02:49:58.997Z,103022.59
2023-02-11T02:52:52.179Z,103183.75
2023-02-11T02:55:41.136Z,103178.66
2023-02-11T02:58:59.667Z,103180.72
2023-02-11T03:01:55.950Z,103174.06
2023-02-11T03:04:37.238Z,103163.78
2023-02-11T03:07:18.215Z,103078.69
2023-02-11T03:10:15.995Z,103085.41
2023-02-11T03:13:18.971Z,102956.53
2023-02-11T03:16:07.212Z,103107.03
2023-02-11T03:18:37.212Z,102914.13
2023-02-11T03:21:07.325Z,103123.88
2023-02-11T03:23:44.830Z,103017.72
2023-02-11T03:26:25.895Z,102930.63
2023-02-11T03:29:11.738Z,103155.50
2023-02-11T03:32:05.588Z,103156.44
2023-02-11T03:34:47.838Z,103157.34
2023-02-11T03:37:35.086Z,103092.06
2023-02-11T03:40:24.957Z,103103.41
2023-02-11T03:43:34.001Z,103009.97
2023-02-11T03:46:18.266Z,103078.53
2023-02-11T03:49:09.969Z,103172.59
2023-02-11T03:52:12.989Z,103121.69
2023-02-11T03:54:56.809Z,103139.44
2023-02-11T03:57:43.989Z,103146.47
2023-02-11T04:00:51.981Z,102788.94
2023-02-11T04:03:52.987Z,103124.31
2023-02-11T04:06:23.371Z,103008.84
2023-02-11T04:08:50.823Z,103096.78
2023-02-11T04:11:18.198Z,102980.38
2023-02-11T04:13:45.404Z,103166.19
2023-02-11T04:16:12.570Z,103085.13
2023-02-11T04:18:39.601Z,103092.09
2023-02-11T04:21:07.277Z,102991.81
2023-02-11T04:23:34.510Z,103148.75
2023-02-11T04:26:01.702Z,103020.34
2023-02-11T04:28:29.833Z,102991.41
2023-02-11T04:30:58.032Z,103030.06
2023-02-11T04:33:25.427Z,102922.28
2023-02-11T04:35:52.778Z,103014.78
2023-02-11T04:38:20.183Z,103026.78
2023-02-11T04:40:47.388Z,103112.38
2023-02-11T04:43:14.641Z,102925.03
2023-02-11T04:45:42.602Z,102848.53
2023-02-11T04:48:09.781Z,102931.28
2023-02-11T04:51:11.011Z,103064.72
2023-02-11T04:54:12.000Z,102864.47
2023-02-11T04:57:13.033Z,102990.28
2023-02-11T05:00:14.006Z,103124.56
2023-02-11T05:02:54.631Z,103081.44
2023-02-11T05:05:24.179Z,103061.63
2023-02-11T05:07:53.992Z,103022.88
2023-02-11T05:10:21.393Z,103129.56
2023-02-11T05:12:49.653Z,102720.28
2023-02-11T05:15:17.031Z,103135.75
2023-02-11T05:17:44.484Z,103007.16
2023-02-11T05:20:11.882Z,103059.28
2023-02-11T05:22:42.254Z,103135.69
2023-02-11T05:25:09.901Z,102870.13
2023-02-11T05:27:39.547Z,102896.19
2023-02-11T05:30:10.959Z,102997.25
2023-02-11T05:32:38.354Z,103008.22
2023-02-11T05:35:05.829Z,102906.19
2023-02-11T05:37:33.467Z,102943.69
2023-02-11T05:40:00.767Z,103111.09
2023-02-11T05:42:28.192Z,102998.13
2023-02-11T05:44:55.454Z,102761.78
2023-02-11T05:47:22.743Z,102925.53
2023-02-11T05:50:11.005Z,103111.72
2023-02-11T05:53:15.116Z,103029.81
2023-02-11T05:56:17.021Z,103021.97
2023-02-11T05:59:00.030Z,102897.41
2023-02-11T06:01:47.173Z,103053.69
2023-02-11T06:04:27.716Z,102926.94
2023-02-11T06:06:55.032Z,103104.97
2023-02-11T06:09:23.004Z,102786.28
2023-02-11T06:11:50.396Z,102876.63
2023-02-11T06:14:26.827Z,103000.41
2023-02-11T06:16:56.138Z,103086.03
2023-02-11T06:19:28.930Z,102904.50
2023-02-11T06:22:18.284Z,102713.66
2023-02-11T06:25:02.403Z,102841.53
2023-02-11T06:27:34.673Z,102657.69
2023-02-11T06:30:23.126Z,103029.47
2023-02-11T06:33:04.384Z,103002.94
2023-02-11T06:35:33.606Z,103121.59
2023-02-11T06:38:01.475Z,102819.22
2023-02-11T06:40:30.477Z,102869.31
2023-02-11T06:42:58.021Z,102733.19
2023-02-11T06:45:45.043Z,102896.22
2023-02-11T06:48:25.750Z,102688.78
2023-02-11T06:50:53.100Z,102691.19
2023-02-11T06:53:20.958Z,102698.59
2023-02-11T06:56:08.553Z,102907.97
2023-02-11T06:59:27.363Z,102838.78
2023-02-11T07:02:29.251Z,102682.47
2023-02-11T07:05:12.601Z,102693.72
2023-02-11T07:07:42.862Z,102771.94
2023-02-11T07:10:11.417Z,102728.81
2023-02-11T07:12:39.157Z,103044.75
2023-02-11T07:15:26.170Z,102686.00
2023-02-11T07:18:14.737Z,102934.81
2023-02-11T07:24:14.212Z,102990.16
2023-02-11T07:26:41.931Z,102882.34
2023-02-11T07:29:35.112Z,102920.78
2023-02-11T07:36:48.713Z,102711.50
2023-02-11T07:40:15.753Z,103116.50
2023-02-11T07:52:03.580Z,102747.94
2023-02-11T08:15:07.218Z,103005.06
2023-02-11T08:21:04.739Z,102908.06
2023-02-11T08:30:18.113Z,102869.41
2023-02-11T08:32:45.128Z,103087.34
2023-02-11T08:35:12.618Z,103080.34
2023-02-11T08:38:01.059Z,103131.84
2023-02-11T08:41:02.089Z,103082.25
2023-02-11T08:43:44.277Z,103098.34
2023-02-11T08:46:33.091Z,103071.59
2023-02-11T08:49:38.997Z,102795.84
2023-02-11T08:52:57.757Z,102802.66
2023-02-11T08:55:48.277Z,103124.81
2023-02-11T09:02:25.335Z,103126.75
2023-02-11T09:05:08.251Z,102818.38
2023-02-11T09:08:02.184Z,103035.72
2023-02-11T09:10:54.076Z,103106.88
2023-02-11T09:13:57.149Z,103123.53
2023-02-11T09:16:58.172Z,103117.22
2023-02-11T09:19:59.144Z,103099.94
2023-02-11T09:23:00.064Z,103069.75
2023-02-11T09:25:41.360Z,103141.47
2023-02-11T09:28:09.194Z,103094.34
2023-02-11T09:30:38.130Z,103134.50
2023-02-11T09:33:05.150Z,103138.50
2023-02-11T09:35:33.295Z,102991.44
2023-02-11T09:38:00.382Z,103006.00
2023-02-11T09:41:18.531Z,102817.69
2023-02-11T09:44:13.833Z,102792.25
2023-02-11T09:46:47.816Z,102821.38
2023-02-11T09:49:39.028Z,102760.97
2023-02-11T09:52:25.235Z,103116.44
2023-02-11T09:55:04.284Z,102889.91
2023-02-11T09:57:51.262Z,103048.31
2023-02-11T10:00:43.410Z,103125.31
2023-02-11T10:03:33.227Z,102959.91
2023-02-11T10:06:06.734Z,103105.16
2023-02-11T10:09:13.001Z,102770.03
2023-02-11T10:12:32.219Z,102929.94
2023-02-11T10:16:17.302Z,103121.91
2023-02-11T10:19:43.183Z,103125.91
2023-02-11T10:23:02.186Z,103124.13
2023-02-11T10:25:50.858Z,102816.97
2023-02-11T10:28:34.031Z,103149.88
2023-02-11T10:31:18.446Z,102839.63
2023-02-11T10:33:57.328Z,102939.81
2023-02-11T10:36:30.780Z,102831.00
2023-02-11T10:39:28.695Z,102952.50
2023-02-11T10:42:14.300Z,102864.69
2023-02-11T10:45:24.048Z,102828.84
2023-02-11T10:48:45.418Z,102927.44
2023-02-11T10:51:41.229Z,102814.56
2023-02-11T10:54:28.817Z,102790.41
2023-02-11T10:57:19.165Z,103115.47
2023-02-11T11:00:52.578Z,103082.63
2023-02-11T11:03:39.221Z,103058.00
2023-02-11T11:06:09.942Z,103098.63
2023-02-11T11:09:05.582Z,103036.47
2023-02-11T11:12:13.244Z,102764.66
2023-02-11T11:15:32.897Z,103081.94
2023-02-11T11:18:35.703Z,102853.91
2023-02-11T11:21:55.692Z,102962.84
2023-02-11T11:24:46.859Z,103050.59
2023-02-11T11:27:24.736Z,103011.34
2023-02-11T11:29:55.483Z,103004.59
2023-02-11T11:32:25.603Z,103026.75
2023-02-11T11:35:00.174Z,103021.63
2023-02-11T11:37:50.181Z,103036.44
2023-02-11T11:40:35.510Z,102987.31
2023-02-11T11:43:07.669Z,103028.91
2023-02-11T11:45:34.923Z,103008.63
2023-02-11T11:48:24.719Z,103030.00
2023-02-11T11:51:01.664Z,102916.84
2023-02-11T11:53:41.260Z,103014.31
2023-02-11T11:56:35.183Z,103017.06
2023-02-11T11:59:17.606Z,103012.91
2023-02-11T12:02:33.176Z,103015.91
2023-02-11T12:05:20.943Z,102928.94
2023-02-11T12:08:02.207Z,102980.53
2023-02-11T12:14:02.127Z,103001.22
2023-02-11T12:16:57.753Z,102997.19
2023-02-11T12:19:56.687Z,102992.75
2023-02-11T12:22:47.285Z,102987.84
2023-02-11T12:25:52.204Z,102994.06
2023-02-11T12:29:16.593Z,102885.56
2023-02-11T12:32:20.768Z,102982.56
2023-02-11T12:35:20.355Z,102975.19
2023-02-11T12:38:21.312Z,102968.44
2023-02-11T12:41:46.356Z,102962.88
2023-02-11T12:44:49.577Z,102957.78
2023-02-11T12:47:38.901Z,102948.53
2023-02-11T12:50:19.795Z,102945.19
2023-02-11T12:53:35.963Z,102840.59
2023-02-11T12:56:55.195Z,102954.28
2023-02-11T13:00:34.257Z,102901.25
2023-02-11T13:03:35.233Z,102949.59
2023-02-11T13:06:22.836Z,102742.22
2023-02-11T13:08:59.792Z,102895.53
2023-02-11T13:11:29.642Z,102917.25
2023-02-11T13:14:29.565Z,102909.59
2023-02-11T13:17:37.744Z,102963.41
2023-02-11T13:21:30.566Z,102934.44
2023-02-11T13:24:56.287Z,102934.03
2023-02-11T13:28:25.860Z,102937.66
2023-02-11T13:33:46.037Z,102890.88
2023-02-11T13:36:39.335Z,102894.25
2023-02-11T13:39:21.873Z,102902.22
2023-02-11T13:41:52.459Z,102791.97
2023-02-11T13:44:23.986Z,102863.50
2023-02-11T13:47:22.842Z,102892.78
2023-02-11T13:49:54.421Z,102844.75
2023-02-11T13:52:49.238Z,102829.94
2023-02-11T13:55:52.230Z,102843.53
2023-02-11T13:58:40.015Z,102863.34
2023-02-11T14:01:08.153Z,102831.59
2023-02-11T14:03:58.020Z,102869.22
2023-02-11T14:07:07.282Z,102828.78
2023-02-11T14:09:45.023Z,102739.31
2023-02-11T14:12:26.759Z,102869.38
2023-02-11T14:15:08.493Z,102864.06
2023-02-11T14:17:36.804Z,102844.16
2023-02-11T14:20:52.434Z,102802.06
2023-02-11T14:23:54.309Z,102822.19
2023-02-11T14:27:08.241Z,102817.34
2023-02-11T14:30:13.319Z,102858.59
2023-02-11T14:33:23.870Z,102841.66
2023-02-11T14:36:34.659Z,102815.31
2023-02-11T14:39:24.844Z,102784.03
2023-02-11T14:41:52.982Z,102609.19
2023-02-11T14:44:25.384Z,102774.19
2023-02-11T14:47:14.309Z,102832.25
2023-02-11T14:50:16.357Z,102777.81
2023-02-11T14:53:04.359Z,102817.00
2023-02-11T14:55:55.316Z,102732.00
2023-02-11T14:58:35.939Z,102832.69
2023-02-11T15:01:21.059Z,102806.06
2023-02-11T15:03:50.675Z,102720.94
2023-02-11T15:06:47.333Z,102820.91
2023-02-11T15:09:19.409Z,102788.72
2023-02-11T15:11:54.857Z,102596.75
2023-02-11T15:14:24.272Z,102820.25
2023-02-11T15:16:59.605Z,102734.69
2023-02-11T15:19:34.678Z,102821.94
2023-02-11T15:22:08.224Z,102813.41
2023-02-11T15:24:56.293Z,102797.56
2023-02-11T15:28:03.344Z,102765.72
2023-02-11T15:31:34.932Z,102804.97
2023-02-11T15:34:36.682Z,102752.00
2023-02-11T15:37:44.284Z,102801.91
2023-02-11T15:40:48.448Z,102774.69
2023-02-11T15:44:00.384Z,102796.94
2023-02-11T15:46:48.483Z,102781.66
2023-02-11T15:49:40.328Z,102781.44
2023-02-11T15:52:26.416Z,102745.88
2023-02-11T15:54:56.252Z,102802.09
2023-02-11T15:57:44.291Z,102778.88
2023-02-11T16:00:50.842Z,102698.44
2023-02-11T16:03:33.074Z,102779.16
2023-02-11T16:06:21.909Z,102776.81
2023-02-11T16:09:19.314Z,102565.09
2023-02-11T16:12:22.628Z,102764.25
2023-02-11T16:14:50.853Z,102732.47
2023-02-11T16:17:18.669Z,102774.78
2023-02-11T16:19:47.917Z,102722.31
2023-02-11T16:22:44.341Z,102757.19
2023-02-11T16:25:51.344Z,102743.78
2023-02-11T16:28:33.147Z,102776.84
2023-02-11T16:31:02.486Z,102773.91
2023-02-11T16:33:49.354Z,102720.09
2023-02-11T16:36:50.342Z,102752.44
2023-02-11T16:39:35.264Z,102774.50
2023-02-11T16:42:05.739Z,102736.72
2023-02-11T16:44:35.040Z,102744.28
2023-02-11T16:47:45.432Z,102750.31
2023-02-11T16:50:30.162Z,102805.94
2023-02-11T16:53:03.762Z,102588.94
2023-02-11T16:55:53.347Z,102627.38
2023-02-11T16:58:33.961Z,102761.78
2023-02-11T17:01:32.674Z,102771.84
2023-02-11T17:05:03.276Z,102630.22
2023-02-11T17:08:32.303Z,102782.44
2023-02-11T17:11:20.381Z,102640.59
2023-02-11T17:13:48.813Z,102707.34
2023-02-11T17:16:20.760Z,102584.03
2023-02-11T17:19:16.386Z,102639.09
2023-02-11T17:21:48.397Z,102616.19
2023-02-11T17:24:36.432Z,102602.66
2023-02-11T17:27:21.752Z,102733.47
2023-02-11T17:30:22.683Z,102788.44
2023-02-11T17:33:33.979Z,102422.41
2023-02-11T17:36:43.248Z,102618.44
2023-02-11T17:39:44.457Z,102706.38
2023-02-11T17:42:43.152Z,102692.13
2023-02-11T17:45:30.440Z,102495.28
2023-02-11T17:48:19.128Z,102598.78
2023-02-11T17:51:07.427Z,102831.16
2023-02-11T17:53:48.167Z,102790.19
2023-02-11T17:56:36.457Z,102662.91
2023-02-11T17:59:17.650Z,102619.41
2023-02-11T18:01:45.049Z,102677.25
2023-02-11T18:04:18.011Z,102779.47
2023-02-11T18:06:46.422Z,102681.13
2023-02-11T18:09:14.421Z,102756.88
2023-02-11T18:11:42.434Z,102810.16
2023-02-11T18:14:11.391Z,102759.00
2023-02-11T18:16:43.353Z,102674.56
2023-02-11T18:22:58.903Z,102793.75
2023-02-11T18:26:16.443Z,102675.53
2023-02-11T18:29:18.489Z,102753.34
2023-02-11T18:32:12.992Z,102537.56
2023-02-11T18:34:58.463Z,102514.63
2023-02-11T18:43:47.102Z,102473.66
2023-02-11T18:46:19.185Z,102481.22
2023-02-11T18:52:42.978Z,102522.16
2023-02-11T18:55:58.794Z,102536.97
2023-02-11T18:59:15.580Z,102826.38
2023-02-11T19:02:40.184Z,102694.72
2023-02-11T19:05:33.525Z,102538.00
2023-02-11T19:08:12.000Z,102810.16
2023-02-11T19:14:22.308Z,102524.38
2023-02-11T19:17:13.690Z,102449.38
2023-02-11T19:19:55.882Z,102498.81
2023-02-11T19:23:08.484Z,102609.81
2023-02-11T19:29:26.899Z,102588.59
2023-02-11T19:32:08.448Z,102471.88
2023-02-11T19:35:07.174Z,102520.06
2023-02-11T19:37:40.014Z,102507.06
2023-02-11T19:43:17.371Z,102620.41
2023-02-11T19:49:01.160Z,102829.72
2023-02-11T19:51:40.548Z,102594.97
2023-02-11T19:54:31.849Z,102493.00
2023-02-11T19:57:34.507Z,102486.19
2023-02-11T20:00:35.482Z,102763.03
2023-02-11T20:03:16.278Z,102655.78
2023-02-11T20:05:47.254Z,102777.22
2023-02-11T20:08:17.135Z,102483.22
2023-02-11T20:10:47.450Z,102613.03
2023-02-11T20:13:17.120Z,102596.47
2023-02-11T20:16:04.548Z,102639.16
2023-02-11T20:19:09.405Z,102677.75
2023-02-11T20:25:35.406Z,102589.88
2023-02-11T20:28:16.646Z,102819.63
2023-02-11T20:30:44.895Z,102579.16
2023-02-11T20:33:15.367Z,102723.78
2023-02-11T20:35:42.742Z,102525.28
2023-02-11T20:38:09.994Z,102489.53
2023-02-11T20:40:38.510Z,102623.78
2023-02-11T20:43:05.776Z,102532.00
2023-02-11T20:45:35.629Z,102519.13
2023-02-11T20:48:03.020Z,102489.41
2023-02-11T20:50:50.533Z,102627.16
2023-02-11T20:53:31.528Z,102564.88
2023-02-11T20:56:21.601Z,102712.38
2023-02-11T20:59:04.197Z,102613.44
2023-02-11T21:01:36.395Z,102630.13
2023-02-11T21:04:11.117Z,102482.81
2023-02-11T21:06:41.044Z,102454.19
2023-02-11T21:09:11.493Z,102798.50
2023-02-11T21:12:01.514Z,102601.09
2023-02-11T21:15:03.569Z,102470.59
2023-02-11T21:17:44.312Z,102788.03
2023-02-11T21:20:11.848Z,102699.63
2023-02-11T21:22:39.129Z,102558.97
2023-02-11T21:25:27.541Z,102681.59
2023-02-11T21:28:08.581Z,102453.75
2023-02-11T21:30:39.000Z,102559.25
2023-02-11T21:33:06.383Z,102538.22
2023-02-11T21:35:34.759Z,102506.81
2023-02-11T21:38:02.171Z,102552.19
2023-02-11T21:40:29.879Z,102468.22
2023-02-11T21:42:57.391Z,102669.41
2023-02-11T21:45:25.584Z,102457.41
2023-02-11T21:47:53.187Z,102740.09
2023-02-11T21:50:40.564Z,102640.81
2023-02-11T21:53:21.494Z,102495.97
2023-02-11T21:56:25.508Z,102657.25
2023-02-11T21:59:06.629Z,102489.03
2023-02-11T22:01:35.419Z,102592.31
2023-02-11T22:04:02.686Z,102617.81
2023-02-11T22:06:49.616Z,102443.25
2023-02-11T22:09:30.300Z,102568.44
2023-02-11T22:11:57.457Z,102551.13
2023-02-11T22:14:24.564Z,102770.22
2023-02-11T22:16:52.583Z,102578.41
2023-02-11T22:19:20.004Z,102816.38
2023-02-11T22:21:47.251Z,102700.16
2023-02-11T22:24:34.550Z,102701.13
2023-02-11T22:27:40.974Z,102603.88
2023-02-11T22:30:41.648Z,102558.56
2023-02-11T22:33:08.774Z,102442.13
2023-02-11T22:35:36.025Z,102680.56
2023-02-11T22:38:23.605Z,102775.59
2023-02-11T22:41:10.684Z,102784.69
2023-02-11T22:43:38.391Z,102430.72
2023-02-11T22:46:07.799Z,102664.09
2023-02-11T22:48:35.916Z,102784.59
2023-02-11T22:51:13.085Z,102429.28
2023-02-11T22:53:40.621Z,102614.78
2023-02-11T22:56:27.555Z,102667.53
2023-02-11T22:59:29.568Z,102774.56
2023-02-11T23:02:30.577Z,102628.84
2023-02-11T23:05:19.783Z,102665.09
2023-02-11T23:07:46.969Z,102566.22
2023-02-11T23:10:14.235Z,102551.34
2023-02-11T23:12:41.910Z,102526.50
2023-02-11T23:15:09.370Z,102560.72
2023-02-11T23:17:36.456Z,102541.72
2023-02-11T23:20:05.433Z,102670.31
2023-02-11T23:22:32.808Z,102680.56
2023-02-11T23:25:00.178Z,102759.88
2023-02-11T23:27:27.292Z,102725.31
2023-02-11T23:29:56.985Z,102569.88
2023-02-11T23:32:37.775Z,102460.06
2023-02-11T23:35:40.637Z,102647.19
2023-02-11T23:38:21.359Z,102761.59
2023-02-11T23:41:27.582Z,102389.13
2023-02-11T23:44:30.916Z,102411.34
2023-02-11T23:47:13.473Z,102605.81
2023-02-11T23:49:44.670Z,102557.09
2023-02-11T23:52:12.268Z,102650.38
2023-02-11T23:55:11.167Z,102441.97
2023-02-11T23:58:16.665Z,102419.56
